Time;durP1;ratioP1;P1;durP2;ratioP2;P2;SDS_P1;SDS_P2;PMS_P1;PMS_P2;Temp;Humidity;BMP_temperature;BMP_pressure;BME280_temperature;BME280_humidity;BME280_pressure;Samples;Min_cycle;Max_cycle;Signal;HPM_P1;HPM_P2
2022/09/19 00:01:46;;;;;;;1.10;1.00;;;;;;;-141.28;100.00;49588.34;5074006;28;20450;-75
2022/09/19 00:04:16;;;;;;;1.10;1.00;;;;;;;-141.28;100.00;49596.22;5073094;28;20470;-75
2022/09/19 00:06:45;;;;;;;1.30;1.10;;;;;;;-141.28;100.00;49598.16;5077480;28;20436;-74
2022/09/19 00:09:15;;;;;;;1.20;1.10;;;;;;;-141.28;100.00;49623.69;5093480;28;20468;-75
2022/09/19 00:11:46;;;;;;;1.10;1.00;;;;;;;-141.28;100.00;49623.69;5077781;28;20972;-74
2022/09/19 00:14:16;;;;;;;1.67;0.90;;;;;;;-141.28;100.00;49611.91;5072395;28;20460;-75
2022/09/19 00:16:45;;;;;;;1.47;1.23;;;;;;;-141.28;100.00;49604.06;5074233;28;20443;-76
2022/09/19 00:19:19;;;;;;;1.13;1.03;;;;;;;-141.28;100.00;49623.69;5084200;28;20968;-75
2022/09/19 00:21:48;;;;;;;3.17;1.17;;;;;;;-141.28;100.00;49611.91;5105170;28;20952;-74
2022/09/19 00:27:03;;;;;;;1.10;1.00;;;;;;;-141.28;100.00;49627.59;5101298;28;20427;-76
2022/09/19 00:29:31;;;;;;;2.90;1.30;;;;;;;-141.28;100.00;49582.47;5111598;28;20458;-74
2022/09/19 00:31:58;;;;;;;1.33;1.23;;;;;;;-141.28;100.00;49590.31;5092772;28;21034;-75
2022/09/19 00:34:28;;;;;;;2.47;1.30;;;;;;;-141.28;100.00;49560.88;5101507;28;20473;-76
2022/09/19 00:36:55;;;;;;;1.20;1.10;;;;;;;-141.28;100.00;49560.88;5092096;28;20449;-75
2022/09/19 00:39:22;;;;;;;1.10;1.00;;;;;;;-141.28;100.00;49515.75;5099769;28;20506;-74
2022/09/19 00:41:51;;;;;;;1.30;1.20;;;;;;;-141.28;100.00;49486.31;5098798;28;20606;-75
2022/09/19 00:44:57;;;;;;;2.03;1.73;;;;;;;-141.28;100.00;49509.88;5085397;28;20488;-73
2022/09/19 00:47:33;;;;;;;4.83;2.73;;;;;;;-141.28;100.00;49486.31;5106694;28;20461;-76
2022/09/19 00:50:06;;;;;;;6.43;4.50;;;;;;;-141.28;100.00;49443.16;5092525;28;20959;-76
2022/09/19 00:52:38;;;;;;;7.43;3.60;;;;;;;-141.28;100.00;49347.00;5087753;28;20464;-76
2022/09/19 00:55:05;;;;;;;8.87;4.00;;;;;;;-141.28;100.00;49284.22;5111064;28;20493;-76
2022/09/19 00:57:42;;;;;;;12.23;4.47;;;;;;;-141.28;100.00;49262.63;5094594;28;20448;-76
2022/09/19 01:00:10;;;;;;;7.03;5.00;;;;;;;-141.28;100.00;49227.31;5081502;28;20456;-75
2022/09/19 01:02:37;;;;;;;6.87;3.93;;;;;;;-141.28;100.00;49239.09;5091483;28;20521;-76
2022/09/19 01:05:08;;;;;;;8.07;4.17;;;;;;;-141.28;100.00;49246.94;5084177;28;20555;-77
2022/09/19 01:07:51;;;;;;;10.77;4.57;;;;;;;-141.28;100.00;49292.06;5084024;28;20947;-76
2022/09/19 01:10:30;;;;;;;6.73;4.13;;;;;;;-141.28;100.00;49301.88;5097019;28;20444;-73
2022/09/19 01:13:09;;;;;;;7.17;3.77;;;;;;;-141.28;100.00;49315.59;5091333;28;20468;-75
2022/09/19 01:15:46;;;;;;;4.40;3.50;;;;;;;-141.28;100.00;49354.84;5108490;28;20541;-76
2022/09/19 01:18:13;;;;;;;5.83;3.60;;;;;;;-141.28;100.00;49382.31;5108264;28;20449;-74
2022/09/19 01:24:20;;;;;;;6.07;3.77;;;;;;;-141.28;100.00;49545.19;5090945;28;20476;-75
2022/09/19 01:27:10;;;;;;;3.50;3.20;;;;;;;-141.28;100.00;49521.63;5078436;28;20518;-74
2022/09/19 01:29:48;;;;;;;7.00;3.27;;;;;;;-141.28;100.00;49525.56;5088019;28;20441;-77
2022/09/19 01:32:22;;;;;;;3.67;2.97;;;;;;;-141.28;100.00;49494.16;5083567;28;20444;-74
2022/09/19 01:34:53;;;;;;;3.87;3.40;;;;;;;-141.28;100.00;49529.50;5072026;28;20434;-76
2022/09/19 01:37:27;;;;;;;4.63;3.30;;;;;;;-141.28;100.00;49541.25;5071356;28;21023;-75
2022/09/19 01:39:58;;;;;;;4.53;2.73;;;;;;;-141.28;100.00;49564.81;5111589;28;20802;-75
2022/09/19 01:42:25;;;;;;;3.67;2.70;;;;;;;-141.28;100.00;49580.50;5094149;28;20639;-74
2022/09/19 01:44:55;;;;;;;3.87;2.60;;;;;;;-141.28;100.00;49553.03;5080237;28;20480;-76
2022/09/19 01:47:31;;;;;;;3.63;2.80;;;;;;;-141.28;100.00;49631.53;5093270;28;20814;-74
2022/09/19 01:50:05;;;;;;;3.67;2.80;;;;;;;-141.28;100.00;49657.03;5084160;28;20446;-74
2022/09/19 01:52:49;;;;;;;3.83;2.70;;;;;;;-141.28;100.00;49690.41;5075508;28;20439;-75
2022/09/19 01:55:24;;;;;;;3.87;2.70;;;;;;;-141.28;100.00;49712.00;5075991;28;20454;-74
2022/09/19 01:58:04;;;;;;;5.10;2.77;;;;;;;-141.28;100.00;49706.09;5076306;28;20472;-75
2022/09/19 02:00:34;;;;;;;7.50;2.93;;;;;;;-141.28;100.00;49737.50;5075056;28;20534;-75
2022/09/19 02:03:12;;;;;;;6.60;2.87;;;;;;;-141.28;100.00;49729.66;5086686;28;20448;-75
2022/09/19 02:05:47;;;;;;;4.33;2.80;;;;;;;-141.28;100.00;49768.91;5075183;28;20577;-75
2022/09/19 02:08:21;;;;;;;6.53;2.77;;;;;;;-141.28;100.00;49715.91;5057247;28;20561;-75
2022/09/19 02:10:54;;;;;;;3.83;2.60;;;;;;;-141.28;100.00;49782.63;5075256;28;20892;-75
2022/09/19 02:13:24;;;;;;;5.73;2.80;;;;;;;-141.28;100.00;49800.31;5075518;28;20450;-74
2022/09/19 02:15:59;;;;;;;5.27;2.83;;;;;;;-141.28;100.00;49810.13;5075762;28;20438;-74
2022/09/19 02:18:30;;;;;;;5.27;3.00;;;;;;;-141.28;100.00;49798.34;5081511;28;20815;-76
2022/09/19 02:21:03;;;;;;;3.97;2.87;;;;;;;-141.28;100.00;49829.75;5107044;28;20447;-75
2022/09/19 02:23:33;;;;;;;6.50;3.10;;;;;;;-141.28;100.00;49833.66;5115240;28;20483;-74
2022/09/19 02:26:03;;;;;;;6.60;3.27;;;;;;;-141.28;100.00;49849.38;5113444;28;20480;-75
2022/09/19 02:28:34;;;;;;;6.90;3.37;;;;;;;-141.28;100.00;49870.94;5095221;28;20469;-75
2022/09/19 02:31:04;;;;;;;6.67;3.33;;;;;;;-141.28;100.00;49874.88;5082350;28;21098;-75
2022/09/19 02:33:35;;;;;;;6.30;3.33;;;;;;;-141.28;100.00;49882.72;5115121;28;20436;-75
2022/09/19 02:36:14;;;;;;;6.43;3.00;;;;;;;-141.28;100.00;49892.53;5113857;28;20433;-77
2022/09/19 02:38:50;;;;;;;6.60;3.30;;;;;;;-141.28;100.00;49894.50;5114366;28;20440;-75
2022/09/19 02:41:23;;;;;;;5.13;3.53;;;;;;;-141.28;100.00;49912.16;5099903;28;20432;-77
2022/09/19 02:44:00;;;;;;;8.77;3.80;;;;;;;-141.28;100.00;49898.44;5113525;28;20433;-75
2022/09/19 02:46:40;;;;;;;6.03;3.30;;;;;;;-141.28;100.00;49953.38;5114108;28;20523;-74
2022/09/19 02:49:13;;;;;;;8.87;3.70;;;;;;;-141.28;100.00;49902.34;5112703;28;20565;-75
2022/09/19 02:51:46;;;;;;;4.83;3.87;;;;;;;-141.28;100.00;49898.44;5114249;28;20949;-74
2022/09/19 02:54:18;;;;;;;5.50;3.80;;;;;;;-141.28;100.00;49894.50;5107596;28;20449;-74
2022/09/19 02:56:47;;;;;;;8.97;3.47;;;;;;;-141.28;100.00;49878.81;5093933;28;20537;-74
2022/09/19 02:59:20;;;;;;;4.83;3.70;;;;;;;-141.28;100.00;49878.81;5080019;28;20480;-75
2022/09/19 03:01:53;;;;;;;7.37;3.80;;;;;;;-141.28;100.00;49872.91;5094097;28;20442;-75
2022/09/19 03:04:25;;;;;;;7.80;4.27;;;;;;;-141.28;100.00;49882.72;5086274;28;20524;-77
2022/09/19 03:06:58;;;;;;;5.93;4.87;;;;;;;-141.28;100.00;49878.81;5087484;28;20445;-74
2022/09/19 03:09:29;;;;;;;7.93;5.03;;;;;;;-141.28;100.00;49847.41;5093530;28;20497;-75
2022/09/19 03:12:05;;;;;;;9.10;5.07;;;;;;;-141.28;100.00;49843.47;5110571;28;20437;-75
2022/09/19 03:14:34;;;;;;;9.63;4.90;;;;;;;-141.28;100.00;49841.50;5100136;28;20441;-75
2022/09/19 03:17:05;;;;;;;5.50;4.57;;;;;;;-141.28;100.00;49847.41;5086407;28;20463;-75
2022/09/19 03:19:32;;;;;;;9.40;4.70;;;;;;;-141.28;100.00;49823.84;5097885;28;20434;-76
2022/09/19 03:22:01;;;;;;;8.63;4.80;;;;;;;-141.28;100.00;49829.75;5093235;28;20438;-74
2022/09/19 03:24:28;;;;;;;5.10;4.60;;;;;;;-141.28;100.00;49847.41;5107706;28;20441;-75
2022/09/19 03:26:55;;;;;;;11.20;5.10;;;;;;;-141.28;100.00;49839.56;5097273;28;20454;-76
2022/09/19 03:29:22;;;;;;;16.27;5.27;;;;;;;-141.28;100.00;49835.63;5076229;28;20495;-76
2022/09/19 03:31:52;;;;;;;10.40;4.73;;;;;;;-141.28;100.00;49847.41;5113269;28;20444;-76
2022/09/19 03:34:21;;;;;;;8.83;5.17;;;;;;;-141.28;100.00;49851.31;5113090;28;20448;-77
2022/09/19 03:36:49;;;;;;;10.13;5.17;;;;;;;-141.28;100.00;49863.09;5093965;28;20439;-75
2022/09/19 03:39:16;;;;;;;7.33;5.17;;;;;;;-141.28;100.00;49855.25;5100087;28;20493;-75
2022/09/19 03:41:43;;;;;;;10.83;5.10;;;;;;;-141.28;100.00;49794.41;5093013;28;20436;-75
2022/09/19 03:44:11;;;;;;;8.73;5.10;;;;;;;-141.28;100.00;49847.41;5106135;28;20443;-73
2022/09/19 03:46:38;;;;;;;8.77;4.83;;;;;;;-141.28;100.00;49843.47;5083189;28;20481;-75
2022/09/19 03:49:06;;;;;;;12.87;5.20;;;;;;;-141.28;100.00;49851.31;5096132;28;20875;-74
2022/09/19 03:51:39;;;;;;;8.33;5.33;;;;;;;-141.28;100.00;49874.88;5112938;28;20445;-74
2022/09/19 03:54:06;;;;;;;5.83;4.83;;;;;;;-141.28;100.00;49855.25;5102299;28;20888;-76
2022/09/19 03:56:34;;;;;;;7.97;3.73;;;;;;;-141.28;100.00;49839.56;5096790;28;20433;-76
2022/09/19 03:59:01;;;;;;;7.50;2.87;;;;;;;-141.28;100.00;49843.47;5087782;28;20478;-74
2022/09/19 04:01:30;;;;;;;6.60;3.13;;;;;;;-141.28;100.00;49851.31;5072943;28;20451;-75
2022/09/19 04:03:57;;;;;;;9.43;3.57;;;;;;;-141.28;100.00;49847.41;5078330;28;20445;-76
2022/09/19 04:06:24;;;;;;;11.57;4.60;;;;;;;-141.28;100.00;49863.09;5061925;28;20516;-74
2022/09/19 04:08:53;;;;;;;10.07;4.07;;;;;;;-141.28;100.00;49874.88;5072729;28;20473;-76
2022/09/19 04:11:20;;;;;;;10.17;4.53;;;;;;;-141.28;100.00;49876.84;5087155;28;20841;-73
2022/09/19 04:13:51;;;;;;;9.20;3.93;;;;;;;-141.28;100.00;49892.53;5073621;28;20446;-75
2022/09/19 04:16:19;;;;;;;7.07;3.70;;;;;;;-141.28;100.00;49894.50;5073801;28;20450;-76
2022/09/19 04:18:49;;;;;;;12.43;4.20;;;;;;;-141.28;100.00;49908.25;5092336;28;20438;-76
2022/09/19 04:21:16;;;;;;;9.03;3.70;;;;;;;-141.28;100.00;49920.00;5079842;28;20529;-75
2022/09/19 04:23:44;;;;;;;23.47;4.53;;;;;;;-141.28;100.00;49937.69;5094772;28;20441;-75
2022/09/19 04:26:14;;;;;;;16.40;4.00;;;;;;;-141.28;100.00;49937.69;5118551;28;20491;-75
2022/09/19 04:28:43;;;;;;;12.37;4.27;;;;;;;-141.28;100.00;49949.44;5113457;28;20444;-75
2022/09/19 04:31:12;;;;;;;13.47;4.90;;;;;;;-141.28;100.00;49953.38;5109200;28;21006;-75
2022/09/19 04:33:39;;;;;;;10.10;4.77;;;;;;;-141.28;100.00;49804.22;5102266;28;20498;-76
2022/09/19 04:36:08;;;;;;;13.57;6.20;;;;;;;-141.28;100.00;49986.75;5107659;28;20928;-75
2022/09/19 04:38:38;;;;;;;11.47;6.73;;;;;;;-141.28;100.00;49992.63;5091775;28;20442;-77
2022/09/19 04:41:06;;;;;;;21.27;6.47;;;;;;;-141.28;100.00;49988.69;5083213;28;20438;-73
2022/09/19 04:43:36;;;;;;;14.87;7.27;;;;;;;-141.28;100.00;49976.94;5072261;28;20438;-75
2022/09/19 04:46:02;;;;;;;14.33;6.37;;;;;;;-141.28;100.00;49992.63;5081804;28;20477;-76
2022/09/19 04:48:30;;;;;;;14.73;6.07;;;;;;;-141.28;100.00;49996.56;5091805;28;20477;-75
2022/09/19 04:50:57;;;;;;;14.03;6.30;;;;;;;-141.28;100.00;50008.34;5088677;28;20450;-76
2022/09/19 04:53:27;;;;;;;21.33;6.60;;;;;;;-141.28;100.00;50004.41;5088435;28;20442;-74
2022/09/19 04:55:55;;;;;;;14.80;6.40;;;;;;;-141.28;100.00;50008.34;5104142;28;20436;-75
2022/09/19 04:58:23;;;;;;;20.13;5.53;;;;;;;-141.28;100.00;50004.41;5105263;28;20461;-74
2022/09/19 05:00:56;;;;;;;12.17;5.20;;;;;;;-141.28;100.00;50004.41;5094524;28;20453;-75
2022/09/19 05:03:27;;;;;;;19.90;5.90;;;;;;;-141.28;100.00;50008.34;5083701;28;20458;-75
2022/09/19 05:05:55;;;;;;;7.93;4.90;;;;;;;-141.28;100.00;50043.66;5085065;28;20477;-74
2022/09/19 05:08:25;;;;;;;9.07;4.60;;;;;;;-141.28;100.00;50043.66;5071342;28;21016;-76
2022/09/19 05:10:54;;;;;;;8.60;4.13;;;;;;;-141.28;100.00;50096.66;5089851;28;20454;-76
2022/09/19 05:13:21;;;;;;;6.73;4.03;;;;;;;-141.28;100.00;50106.47;5101422;28;20519;-74
2022/09/19 05:15:50;;;;;;;15.37;4.43;;;;;;;-141.28;100.00;50110.38;5090331;28;20428;-74
2022/09/19 05:18:21;;;;;;;7.60;4.90;;;;;;;-141.28;100.00;50130.00;5090292;28;20893;-74
2022/09/19 05:20:49;;;;;;;12.97;4.00;;;;;;;-141.28;100.00;50145.72;5080751;28;20500;-75
2022/09/19 05:23:18;;;;;;;4.20;3.80;;;;;;;-141.28;100.00;50130.00;5083053;28;20967;-74
2022/09/19 05:25:45;;;;;;;6.23;4.73;;;;;;;-141.28;100.00;50116.28;5086937;28;20508;-75
2022/09/19 05:28:14;;;;;;;9.57;5.00;;;;;;;-141.28;100.00;50135.91;5078800;28;20450;-73
2022/09/19 05:30:49;;;;;;;7.13;4.43;;;;;;;-141.28;100.00;50163.38;5078212;28;20450;-74
2022/09/19 05:33:26;;;;;;;10.27;4.80;;;;;;;-141.28;100.00;50155.53;5078311;28;20653;-75
2022/09/19 05:35:55;;;;;;;9.90;3.97;;;;;;;-141.28;100.00;50165.34;5078873;28;20528;-76
2022/09/19 05:38:22;;;;;;;9.37;4.40;;;;;;;-141.28;100.00;50175.16;5078488;28;20446;-75
2022/09/19 05:40:52;;;;;;;7.80;4.77;;;;;;;-141.28;100.00;50192.81;5094369;28;20457;-76
2022/09/19 05:43:19;;;;;;;10.13;4.70;;;;;;;-141.28;100.00;50206.56;5097860;28;20876;-73
2022/09/19 05:45:47;;;;;;;12.37;6.87;;;;;;;-141.28;100.00;50222.25;5095222;28;20477;-75
2022/09/19 05:48:14;;;;;;;17.80;8.70;;;;;;;-141.28;100.00;50245.81;5112619;28;20516;-75
2022/09/19 05:50:46;;;;;;;11.77;5.80;;;;;;;-141.28;100.00;50283.09;5118375;28;20516;-74
2022/09/19 05:55:59;;;;;;;4.43;3.20;;;;;;;-141.28;100.00;50377.31;5078110;28;20434;-75
2022/09/19 05:58:26;;;;;;;3.93;2.83;;;;;;;-141.28;100.00;50396.94;5079101;28;20446;-75
2022/09/19 06:00:53;;;;;;;5.77;2.90;;;;;;;-141.28;100.00;50387.13;5102179;28;20437;-75
2022/09/19 06:03:22;;;;;;;11.00;3.57;;;;;;;-141.28;100.00;50440.13;5107260;28;20952;-74
2022/09/19 06:05:52;;;;;;;10.07;3.50;;;;;;;-141.28;100.00;50446.03;5093703;28;20554;-75
2022/09/19 06:08:21;;;;;;;6.53;3.47;;;;;;;-141.28;100.00;50377.31;5077881;28;20473;-75
2022/09/19 06:10:48;;;;;;;4.20;2.80;;;;;;;-141.28;100.00;50277.22;5078062;28;21008;-75
2022/09/19 06:13:20;;;;;;;6.37;4.63;;;;;;;-141.28;100.00;50251.69;5090419;28;20433;-74
2022/09/19 06:15:49;;;;;;;7.40;5.03;;;;;;;-141.28;100.00;50230.13;5084562;28;20449;-74
2022/09/19 06:18:17;;;;;;;5.67;3.20;;;;;;;-141.28;100.00;50196.75;5097543;28;20483;-76
2022/09/19 06:20:46;;;;;;;8.37;3.83;;;;;;;-141.28;100.00;50210.47;5108642;28;20191;-75
2022/09/19 06:23:15;;;;;;;8.83;3.37;;;;;;;-141.28;100.00;50239.94;5117498;28;20198;-75
2022/09/19 06:25:43;;;;;;;5.20;3.40;;;;;;;-141.28;100.00;50314.50;5106532;28;20238;-73
2022/09/19 06:28:13;;;;;;;3.27;2.50;;;;;;;-141.28;100.00;50355.72;5110087;28;20198;-75
2022/09/19 06:30:41;;;;;;;6.37;3.20;;;;;;;-141.28;100.00;50495.09;5097202;28;20200;-75
2022/09/19 06:33:09;;;;;;;7.57;3.47;;;;;;;-141.28;100.00;50624.63;5093323;28;20634;-75
2022/09/19 06:35:36;;;;;;;8.87;4.50;;;;;;;-141.28;100.00;50762.06;5094005;28;20207;-75
2022/09/19 06:38:08;;;;;;;5.47;3.40;;;;;;;-141.28;100.00;50987.81;5080816;28;20187;-75
2022/09/19 06:40:38;;;;;;;9.20;3.97;;;;;;;-141.28;100.00;51150.75;5095089;28;20261;-75
2022/09/19 06:43:07;;;;;;;6.43;3.60;;;;;;;-141.28;100.00;51362.78;5090026;28;20606;-74
2022/09/19 06:45:40;;;;;;;7.17;3.57;;;;;;;-141.28;100.00;51515.94;5074604;28;20196;-75
2022/09/19 06:48:08;;;;;;;13.13;4.50;;;;;;;-141.28;100.00;51563.06;5074092;28;20212;-76
2022/09/19 06:50:36;;;;;;;8.57;3.77;;;;;;;-141.28;100.00;51924.38;5088146;28;20199;-75
2022/09/19 06:53:04;;;;;;;9.90;3.47;;;;;;;-141.28;100.00;52065.75;5081927;28;20196;-74
2022/09/19 06:55:33;;;;;;;9.43;3.43;;;;;;;-141.28;100.00;52069.69;5094808;28;20303;-75
2022/09/19 06:58:04;;;;;;;7.13;3.50;;;;;;;-141.28;100.00;52144.31;5113689;28;20226;-75
2022/09/19 07:00:35;;;;;;;9.70;2.90;;;;;;;-141.28;100.00;52152.16;5111516;28;20203;-72
2022/09/19 07:03:04;;;;;;;10.63;2.60;;;;;;;-141.28;100.00;52191.44;5103006;28;20226;-75
2022/09/19 07:05:32;;;;;;;7.20;2.73;;;;;;;-141.28;100.00;52222.88;5113177;28;20199;-75
2022/09/19 07:08:00;;;;;;;8.23;2.60;;;;;;;-141.28;100.00;52195.38;5113176;28;20296;-76
2022/09/19 07:10:27;;;;;;;10.20;3.00;;;;;;;-141.28;100.00;52187.50;5112150;28;20195;-74
2022/09/19 07:12:56;;;;;;;4.57;2.77;;;;;;;-141.28;100.00;52136.44;5113311;28;20252;-76
2022/09/19 07:15:27;;;;;;;9.10;2.60;;;;;;;-141.28;100.00;52120.75;5112601;28;20226;-76
2022/09/19 07:17:58;;;;;;;4.63;2.43;;;;;;;-141.28;100.00;52038.25;5112564;28;20191;-76
2022/09/19 07:20:27;;;;;;;13.13;3.00;;;;;;;-141.28;100.00;51947.94;5101549;28;20210;-73
2022/09/19 07:23:02;;;;;;;6.87;2.73;;;;;;;-141.28;100.00;51944.00;5084350;28;20197;-75
2022/09/19 07:25:31;;;;;;;8.77;2.57;;;;;;;-141.28;100.00;51834.03;5093422;28;20199;-74
2022/09/19 07:27:59;;;;;;;5.37;2.53;;;;;;;-141.28;100.00;51651.41;5090360;28;20537;-74
2022/09/19 07:30:28;;;;;;;6.73;2.63;;;;;;;-141.28;100.00;51604.28;5072997;28;20667;-75
2022/09/19 07:32:57;;;;;;;6.50;2.53;;;;;;;-141.28;100.00;51590.56;5073555;28;20200;-74
2022/09/19 07:35:26;;;;;;;4.67;2.50;;;;;;;-141.28;100.00;51409.91;5084561;28;20211;-74
2022/09/19 07:37:55;;;;;;;8.77;3.30;;;;;;;-141.28;100.00;51091.84;5093072;28;20196;-75
2022/09/19 07:40:23;;;;;;;6.30;3.33;;;;;;;-141.28;100.00;50993.69;5087188;28;20627;-74
2022/09/19 07:42:52;;;;;;;9.10;3.30;;;;;;;-141.28;100.00;51052.59;5112841;28;20649;-76
2022/09/19 07:45:20;;;;;;;7.43;3.57;;;;;;;-141.28;100.00;50923.03;5099465;28;20206;-74
2022/09/19 07:47:50;;;;;;;5.90;3.77;;;;;;;-141.28;100.00;50703.16;5098742;28;20222;-76
2022/09/19 07:50:19;;;;;;;11.67;4.20;;;;;;;-141.28;100.00;50477.44;5111735;28;20256;-74
2022/09/19 07:52:47;;;;;;;9.43;2.90;;;;;;;-141.28;100.00;50306.66;5099704;28;20662;-74
2022/09/19 07:55:15;;;;;;;8.60;2.90;;;;;;;-141.28;100.00;50184.97;5098037;28;20234;-76
2022/09/19 07:57:51;;;;;;;8.13;2.37;;;;;;;-141.28;100.00;50075.06;5104837;28;20260;-75
2022/09/19 08:00:18;;;;;;;2.53;2.00;;;;;;;-141.28;100.00;49929.81;5076738;28;20227;-74
2022/09/19 08:02:55;;;;;;;3.50;2.20;;;;;;;-141.28;100.00;49941.59;5072754;28;20269;-75
2022/09/19 08:05:24;;;;;;;4.10;1.83;;;;;;;-141.28;100.00;50430.31;5089675;28;20297;-74
2022/09/19 08:07:52;;;;;;;3.80;2.30;;;;;;;-141.28;100.00;50326.28;5094348;28;20869;-75
2022/09/19 08:10:20;;;;;;;5.83;2.70;;;;;;;-141.28;100.00;50396.94;5082877;28;20196;-75
2022/09/19 08:12:48;;;;;;;9.57;2.23;;;;;;;-141.28;100.00;50434.25;5095551;28;20204;-75
2022/09/19 08:15:19;;;;;;;4.80;2.23;;;;;;;-141.28;100.00;50416.56;5102627;28;20654;-76
2022/09/19 08:17:57;;;;;;;3.50;2.10;;;;;;;-141.28;100.00;50394.97;5095137;28;20252;-77
2022/09/19 08:20:26;;;;;;;5.97;2.07;;;;;;;-141.28;100.00;50385.16;5080005;28;20199;-76
2022/09/19 08:22:57;;;;;;;4.97;2.60;;;;;;;-141.28;100.00;50373.38;5107146;28;20229;-76
2022/09/19 08:25:24;;;;;;;3.63;2.03;;;;;;;-141.28;100.00;50365.53;5103916;28;20666;-75
2022/09/19 08:27:51;;;;;;;5.87;2.23;;;;;;;-141.28;100.00;50326.28;5107339;28;20699;-75
2022/09/19 08:30:18;;;;;;;9.20;2.80;;;;;;;-141.28;100.00;50381.25;5113177;28;20722;-76
2022/09/19 08:32:47;;;;;;;5.53;2.30;;;;;;;-141.28;100.00;50377.31;5097286;28;20203;-75
2022/09/19 08:35:16;;;;;;;5.00;2.10;;;;;;;-141.28;100.00;50330.22;5112262;28;20206;-74
2022/09/19 08:37:43;;;;;;;8.43;2.30;;;;;;;-141.28;100.00;50314.50;5108486;28;20199;-75
2022/09/19 08:40:19;;;;;;;2.97;2.27;;;;;;;-141.28;100.00;50447.97;5101477;28;20187;-76
2022/09/19 08:42:58;;;;;;;4.80;2.17;;;;;;;-141.28;100.00;50281.13;5104004;28;20677;-73
2022/09/19 08:45:33;;;;;;;3.77;2.27;;;;;;;-141.28;100.00;50251.69;5091925;28;20273;-76
2022/09/19 08:48:06;;;;;;;6.50;2.27;;;;;;;-141.28;100.00;50135.91;5091602;28;20658;-74
2022/09/19 08:50:38;;;;;;;2.17;1.70;;;;;;;-141.28;100.00;50149.63;5095595;28;20428;-76
2022/09/19 08:53:14;;;;;;;5.30;2.10;;;;;;;-141.28;100.00;50141.78;5111888;28;20650;-76
2022/09/19 08:55:43;;;;;;;7.30;1.77;;;;;;;-141.28;100.00;50169.28;5094988;28;20191;-75
2022/09/19 08:58:17;;;;;;;2.50;2.10;;;;;;;-141.28;100.00;50124.13;5080457;28;20244;-75
2022/09/19 09:00:47;;;;;;;3.63;1.80;;;;;;;-141.28;100.00;50031.88;5102776;28;20205;-76
2022/09/19 09:03:16;;;;;;;5.23;2.00;;;;;;;-141.28;100.00;50145.72;5113276;28;20203;-75
2022/09/19 09:05:55;;;;;;;4.93;1.93;;;;;;;-141.28;100.00;50184.97;5101042;28;20708;-75
2022/09/19 09:08:36;;;;;;;2.00;1.63;;;;;;;-141.28;100.00;50045.63;5111528;28;20244;-75
2022/09/19 09:11:14;;;;;;;4.17;1.87;;;;;;;-141.28;100.00;49853.28;5089072;28;20242;-77
2022/09/19 09:13:55;;;;;;;3.77;1.50;;;;;;;-141.28;100.00;49867.03;5071058;28;20674;-76
2022/09/19 09:16:38;;;;;;;2.47;1.67;;;;;;;-141.28;100.00;49749.28;5096153;28;20205;-76
2022/09/19 09:19:31;;;;;;;4.53;1.83;;;;;;;-141.28;100.00;49596.22;5101354;28;20332;-75
2022/09/19 09:22:16;;;;;;;4.67;1.60;;;;;;;-141.28;100.00;49533.41;5078740;28;20191;-73
2022/09/19 09:24:48;;;;;;;1.83;1.40;;;;;;;-141.28;100.00;49668.81;5104144;28;20241;-76
2022/09/19 09:27:20;;;;;;;3.30;1.70;;;;;;;-141.28;100.00;49505.94;5091472;28;20223;-74
2022/09/19 09:29:50;;;;;;;4.23;1.60;;;;;;;-141.28;100.00;49411.75;5107895;28;20619;-74
2022/09/19 09:32:22;;;;;;;2.33;1.63;;;;;;;-141.28;100.00;49513.78;5097527;28;20207;-75
2022/09/19 09:35:00;;;;;;;2.90;1.60;;;;;;;-141.28;100.00;49537.34;5110202;28;20191;-75
2022/09/19 09:37:40;;;;;;;6.40;1.90;;;;;;;-141.28;100.00;49382.31;5110123;28;20649;-76
2022/09/19 09:41:44;;;;;;;4.30;1.50;;;;;;;-141.28;100.00;49378.41;5100956;28;20542;-75
2022/09/19 09:43:08;;;;;;;2.93;1.73;;;;;;;-141.28;100.00;49227.31;5097877;28;20195;-75
2022/09/19 09:45:42;;;;;;;2.60;1.13;;;;;;;-141.28;100.00;49101.72;5109938;28;20199;-76
2022/09/19 09:48:21;;;;;;;7.80;1.60;;;;;;;-141.28;100.00;49144.91;5110784;28;20222;-75
2022/09/19 09:51:02;;;;;;;1.50;1.00;;;;;;;-141.28;100.00;49152.75;5110421;28;20190;-74
2022/09/19 09:53:48;;;;;;;2.37;1.03;;;;;;;-141.28;90.33;49160.59;5084134;28;20204;-76
2022/09/19 09:56:22;;;;;;;2.17;0.90;;;;;;;-141.28;76.98;49168.44;5071213;28;20706;-74
2022/09/19 09:59:08;;;;;;;1.27;1.10;;;;;;;-141.28;70.42;49219.47;5087356;28;20215;-74
2022/09/19 10:04:33;;;;;;;2.83;1.20;;;;;;;-141.28;60.98;49156.66;5091481;28;20198;-75
2022/09/19 10:07:19;;;;;;;1.20;1.10;;;;;;;-141.28;62.25;49176.28;5091157;28;20554;-77
2022/09/19 10:09:52;;;;;;;3.60;1.00;;;;;;;-141.28;59.72;49133.13;5111832;28;20237;-74
2022/09/19 10:12:24;;;;;;;3.30;1.00;;;;;;;-141.28;55.76;49101.72;5110805;28;20199;-74
2022/09/19 10:14:55;;;;;;;3.30;1.30;;;;;;;-141.28;56.16;49097.81;5083571;28;20292;-74
2022/09/19 10:17:25;;;;;;;1.40;1.10;;;;;;;-141.28;53.15;49084.06;5075271;28;20200;-75
2022/09/19 10:19:59;;;;;;;1.10;0.90;;;;;;;-141.28;52.47;49044.84;5088330;28;20188;-77
2022/09/19 10:22:27;;;;;;;4.37;1.20;;;;;;;-141.28;53.15;49129.19;5074837;28;20741;-75
2022/09/19 10:24:59;;;;;;;2.60;1.40;;;;;;;-141.28;58.01;49068.38;5093018;28;20201;-75
2022/09/19 10:27:28;;;;;;;2.13;1.23;;;;;;;-141.28;57.41;49101.72;5094841;28;20223;-78
2022/09/19 10:30:15;;;;;;;3.43;1.33;;;;;;;-141.28;54.50;49133.13;5101490;28;20207;-78
2022/09/19 10:32:48;;;;;;;4.13;1.30;;;;;;;-141.28;57.27;49152.75;5110506;28;20669;-76
2022/09/19 10:35:47;;;;;;;5.90;1.30;;;;;;;-141.28;56.70;49152.75;5094760;28;20224;-76
2022/09/19 10:38:16;;;;;;;4.83;1.43;;;;;;;-141.28;58.53;49080.16;5090255;28;20212;-76
2022/09/19 10:43:45;;;;;;;3.07;1.47;;;;;;;-141.28;54.01;49082.13;5074345;28;20659;-74
2022/09/19 10:46:18;;;;;;;1.53;1.20;;;;;;;-141.28;52.95;49056.59;5104153;28;20275;-75
2022/09/19 10:48:52;;;;;;;3.23;1.30;;;;;;;-141.28;52.63;49040.91;5083585;28;20231;-75
2022/09/19 10:51:20;;;;;;;5.07;1.43;;;;;;;-141.28;53.79;49076.22;5093557;28;20198;-76
2022/09/19 10:53:53;;;;;;;1.90;1.40;;;;;;;-141.28;51.26;49040.91;5082078;28;20204;-75
2022/09/19 10:56:25;;;;;;;4.67;1.40;;;;;;;-141.28;50.54;49356.81;5087266;28;20586;-76
2022/09/19 10:59:02;;;;;;;9.20;1.50;;;;;;;-141.28;49.04;49019.31;5076056;28;20723;-75
2022/09/19 11:01:30;;;;;;;1.20;1.10;;;;;;;-141.28;48.24;49023.25;5076502;28;20298;-77
2022/09/19 11:04:04;;;;;;;2.30;1.20;;;;;;;-141.28;49.96;49046.78;5080399;28;20211;-76
2022/09/19 11:06:31;;;;;;;3.37;1.40;;;;;;;-141.28;52.31;49105.66;5075810;28;20721;-75
2022/09/19 11:08:59;;;;;;;2.43;1.60;;;;;;;-141.28;51.00;49054.66;5080956;28;20235;-76
2022/09/19 11:11:40;;;;;;;2.20;1.57;;;;;;;-141.28;50.78;49054.66;5083459;28;20667;-76
2022/09/19 11:14:29;;;;;;;2.30;1.57;;;;;;;-141.28;52.90;49062.50;5080660;28;20226;-77
2022/09/19 11:17:31;;;;;;;3.50;1.37;;;;;;;-141.28;48.60;49054.66;5092858;28;20771;-75
2022/09/19 11:20:17;;;;;;;3.87;1.47;;;;;;;-141.28;49.67;48993.81;5072904;28;20219;-76
2022/09/19 11:23:13;;;;;;;1.60;1.30;;;;;;;-141.28;48.42;49093.88;5073569;28;20204;-78
2022/09/19 11:25:49;;;;;;;2.53;1.30;;;;;;;-141.28;49.69;49038.94;5084726;28;20203;-75
2022/09/19 11:28:27;;;;;;;2.23;1.43;;;;;;;-141.28;48.62;49078.19;5080346;28;20219;-75
2022/09/19 11:31:06;;;;;;;16.47;2.30;;;;;;;-141.28;49.47;49027.19;5093664;28;20199;-75
2022/09/19 11:33:44;;;;;;;4.67;1.60;;;;;;;-141.28;48.27;49033.06;5084080;28;20734;-76
2022/09/19 11:36:19;;;;;;;5.23;1.60;;;;;;;-141.28;49.24;48991.84;5075683;28;20192;-75
2022/09/19 11:39:00;;;;;;;2.67;1.63;;;;;;;-141.28;48.22;49007.56;5086918;28;20211;-75
2022/09/19 11:41:37;;;;;;;3.47;1.80;;;;;;;-141.28;46.72;49199.84;5073886;28;20288;-77
2022/09/19 11:44:43;;;;;;;5.37;1.87;;;;;;;-141.28;46.07;49009.50;5074180;28;20200;-75
2022/09/19 11:47:30;;;;;;;2.63;1.60;;;;;;;-141.28;48.44;49054.66;5070760;28;20631;-76